Pistol River, Oregon
Current Conditions -  °F | °C
As of 4:56 PM on Wednesday 17 Dec 2014 (Local Time) from KBOK Reporting Station
Light Rain Light Rain  
Wind Chill: 45°   Ceiling: 2400
Heat Index: 48°   Visibility: 6mi
Dew Point: 48°   Wind: 6mph
Humidity: 100%   Direction: 120°ESE
Pressure: 29.94"   Gusts: NA
Location:  42.5771°N, 124.359°W
Report Text: KBOK 180056Z AUTO 12005KT 6SM -RA BR BKN024 BKN035 OVC042 09/09 A2994 RMK AO2 T00880088 BKN V SCT P0002 SLP140
Loading
Personal Weather Stations






























Interactive Weather Map New forecast layout! Learn more

10-Day Weather Forecast

Advertisements
Track Severe Weather on mobile